sensor_id;sensor_type;location;lat;lon;timestamp;pressure;altitude;pressure_sealevel;temperature;humidity
72118;BME280;59992;47.490;8.736;2022-12-07T00:02:32;96644.77;;;2.60;86.83
72118;BME280;59992;47.490;8.736;2022-12-07T00:05:22;96647.63;;;2.62;86.87
72118;BME280;59992;47.490;8.736;2022-12-07T00:08:13;96649.73;;;2.62;86.47
72118;BME280;59992;47.490;8.736;2022-12-07T00:11:04;96648.55;;;2.61;85.73
72118;BME280;59992;47.490;8.736;2022-12-07T00:13:57;96646.05;;;2.62;85.20
72118;BME280;59992;47.490;8.736;2022-12-07T00:16:50;96644.13;;;2.62;86.60
72118;BME280;59992;47.490;8.736;2022-12-07T00:19:40;96643.65;;;2.65;86.36
72118;BME280;59992;47.490;8.736;2022-12-07T00:22:30;96641.92;;;2.64;86.09
72118;BME280;59992;47.490;8.736;2022-12-07T00:25:20;96646.42;;;2.64;86.17
72118;BME280;59992;47.490;8.736;2022-12-07T00:28:11;96644.43;;;2.66;85.92
72118;BME280;59992;47.490;8.736;2022-12-07T00:31:04;96642.80;;;2.66;85.53
72118;BME280;59992;47.490;8.736;2022-12-07T00:33:54;96641.96;;;2.68;85.89
72118;BME280;59992;47.490;8.736;2022-12-07T00:36:44;96640.73;;;2.71;85.47
72118;BME280;59992;47.490;8.736;2022-12-07T00:39:35;96640.04;;;2.73;84.72
72118;BME280;59992;47.490;8.736;2022-12-07T00:42:25;96641.40;;;2.73;84.40
72118;BME280;59992;47.490;8.736;2022-12-07T00:45:15;96645.89;;;2.70;84.21
72118;BME280;59992;47.490;8.736;2022-12-07T00:48:05;96644.83;;;2.70;84.27
72118;BME280;59992;47.490;8.736;2022-12-07T00:50:56;96643.39;;;2.69;84.13
72118;BME280;59992;47.490;8.736;2022-12-07T00:53:46;96638.34;;;2.68;84.13
72118;BME280;59992;47.490;8.736;2022-12-07T00:56:36;96637.57;;;2.65;84.43
72118;BME280;59992;47.490;8.736;2022-12-07T00:59:26;96642.08;;;2.65;84.41
72118;BME280;59992;47.490;8.736;2022-12-07T01:02:16;96638.52;;;2.67;84.34
72118;BME280;59992;47.490;8.736;2022-12-07T01:05:08;96639.82;;;2.70;84.44
72118;BME280;59992;47.490;8.736;2022-12-07T01:07:58;96637.71;;;2.70;84.05
72118;BME280;59992;47.490;8.736;2022-12-07T01:10:49;96637.68;;;2.69;84.18
72118;BME280;59992;47.490;8.736;2022-12-07T01:13:39;96638.67;;;2.66;84.05
72118;BME280;59992;47.490;8.736;2022-12-07T01:16:31;96642.52;;;2.65;84.46
72118;BME280;59992;47.490;8.736;2022-12-07T01:19:22;96641.05;;;2.65;84.35
72118;BME280;59992;47.490;8.736;2022-12-07T01:22:12;96640.73;;;2.65;86.39
72118;BME280;59992;47.490;8.736;2022-12-07T01:25:03;96638.91;;;2.65;85.96
72118;BME280;59992;47.490;8.736;2022-12-07T01:27:53;96638.23;;;2.66;86.01
72118;BME280;59992;47.490;8.736;2022-12-07T01:30:43;96636.02;;;2.69;84.77
72118;BME280;59992;47.490;8.736;2022-12-07T01:33:35;96636.27;;;2.67;84.87
72118;BME280;59992;47.490;8.736;2022-12-07T01:36:27;96638.33;;;2.72;84.74
72118;BME280;59992;47.490;8.736;2022-12-07T01:39:18;96638.77;;;2.71;85.43
72118;BME280;59992;47.490;8.736;2022-12-07T01:42:11;96641.48;;;2.74;84.10
72118;BME280;59992;47.490;8.736;2022-12-07T01:45:34;96640.98;;;2.78;84.41
72118;BME280;59992;47.490;8.736;2022-12-07T01:48:30;96641.63;;;2.79;83.84
72118;BME280;59992;47.490;8.736;2022-12-07T01:51:22;96640.19;;;2.82;84.23
72118;BME280;59992;47.490;8.736;2022-12-07T01:54:14;96637.10;;;2.85;84.10
72118;BME280;59992;47.490;8.736;2022-12-07T01:57:08;96635.78;;;2.86;83.42
72118;BME280;59992;47.490;8.736;2022-12-07T02:00:00;96631.02;;;2.84;83.99
72118;BME280;59992;47.490;8.736;2022-12-07T02:02:55;96633.53;;;2.82;83.83
72118;BME280;59992;47.490;8.736;2022-12-07T02:05:47;96634.15;;;2.81;83.04
72118;BME280;59992;47.490;8.736;2022-12-07T02:08:39;96629.31;;;2.78;83.07
72118;BME280;59992;47.490;8.736;2022-12-07T02:11:30;96625.86;;;2.78;85.19
72118;BME280;59992;47.490;8.736;2022-12-07T02:14:20;96621.86;;;2.78;85.56
72118;BME280;59992;47.490;8.736;2022-12-07T02:17:14;96623.23;;;2.79;84.32
72118;BME280;59992;47.490;8.736;2022-12-07T02:20:22;96627.22;;;2.78;84.56
72118;BME280;59992;47.490;8.736;2022-12-07T02:23:30;96628.23;;;2.78;84.63
72118;BME280;59992;47.490;8.736;2022-12-07T02:26:43;96631.29;;;2.77;84.46
72118;BME280;59992;47.490;8.736;2022-12-07T02:29:37;96628.77;;;2.75;84.53
72118;BME280;59992;47.490;8.736;2022-12-07T02:32:33;96629.26;;;2.74;84.01
72118;BME280;59992;47.490;8.736;2022-12-07T02:35:32;96623.86;;;2.78;83.58
72118;BME280;59992;47.490;8.736;2022-12-07T02:38:26;96624.85;;;2.84;84.50
72118;BME280;59992;47.490;8.736;2022-12-07T02:41:22;96623.55;;;2.88;83.08
72118;BME280;59992;47.490;8.736;2022-12-07T02:44:16;96622.14;;;2.90;82.88
72118;BME280;59992;47.490;8.736;2022-12-07T02:47:11;96623.09;;;2.92;82.80
72118;BME280;59992;47.490;8.736;2022-12-07T02:50:04;96624.38;;;2.90;83.23
72118;BME280;59992;47.490;8.736;2022-12-07T02:52:54;96620.02;;;2.89;82.85
72118;BME280;59992;47.490;8.736;2022-12-07T02:55:45;96622.20;;;2.91;82.82
72118;BME280;59992;47.490;8.736;2022-12-07T02:58:46;96624.91;;;2.88;82.54
72118;BME280;59992;47.490;8.736;2022-12-07T03:01:45;96620.69;;;2.86;82.51
72118;BME280;59992;47.490;8.736;2022-12-07T03:04:45;96617.52;;;2.89;83.24
72118;BME280;59992;47.490;8.736;2022-12-07T03:07:42;96612.19;;;2.87;82.68
72118;BME280;59992;47.490;8.736;2022-12-07T03:10:42;96608.06;;;2.85;82.67
72118;BME280;59992;47.490;8.736;2022-12-07T03:13:41;96605.48;;;2.85;83.46
72118;BME280;59992;47.490;8.736;2022-12-07T03:16:39;96602.70;;;2.85;82.94
72118;BME280;59992;47.490;8.736;2022-12-07T03:19:32;96608.55;;;2.86;83.18
72118;BME280;59992;47.490;8.736;2022-12-07T03:22:24;96603.39;;;2.85;82.91
72118;BME280;59992;47.490;8.736;2022-12-07T03:25:19;96601.89;;;2.86;82.98
72118;BME280;59992;47.490;8.736;2022-12-07T03:28:10;96603.50;;;2.87;83.52
72118;BME280;59992;47.490;8.736;2022-12-07T03:31:03;96607.21;;;2.89;82.90
72118;BME280;59992;47.490;8.736;2022-12-07T03:34:04;96605.69;;;2.87;83.50
72118;BME280;59992;47.490;8.736;2022-12-07T03:36:59;96607.64;;;2.88;82.96
72118;BME280;59992;47.490;8.736;2022-12-07T03:39:58;96609.11;;;2.85;82.24
72118;BME280;59992;47.490;8.736;2022-12-07T03:42:52;96608.20;;;2.81;82.31
72118;BME280;59992;47.490;8.736;2022-12-07T03:45:46;96608.71;;;2.75;83.57
72118;BME280;59992;47.490;8.736;2022-12-07T03:48:47;96610.72;;;2.73;84.32
72118;BME280;59992;47.490;8.736;2022-12-07T03:51:45;96611.27;;;2.70;83.98
72118;BME280;59992;47.490;8.736;2022-12-07T03:54:39;96610.38;;;2.67;85.33
72118;BME280;59992;47.490;8.736;2022-12-07T03:57:32;96610.23;;;2.69;85.36
72118;BME280;59992;47.490;8.736;2022-12-07T04:00:25;96609.24;;;2.70;85.32
72118;BME280;59992;47.490;8.736;2022-12-07T04:03:16;96608.23;;;2.74;84.90
72118;BME280;59992;47.490;8.736;2022-12-07T04:06:06;96609.55;;;2.72;84.62
72118;BME280;59992;47.490;8.736;2022-12-07T04:08:57;96604.76;;;2.70;84.90
72118;BME280;59992;47.490;8.736;2022-12-07T04:11:47;96605.92;;;2.71;85.57
72118;BME280;59992;47.490;8.736;2022-12-07T04:14:38;96608.17;;;2.73;86.24
72118;BME280;59992;47.490;8.736;2022-12-07T04:17:28;96601.50;;;2.73;86.06
72118;BME280;59992;47.490;8.736;2022-12-07T04:20:19;96599.42;;;2.71;85.53
72118;BME280;59992;47.490;8.736;2022-12-07T04:23:09;96593.41;;;2.66;86.04
72118;BME280;59992;47.490;8.736;2022-12-07T04:25:59;96600.38;;;2.72;85.43
72118;BME280;59992;47.490;8.736;2022-12-07T04:28:50;96600.34;;;2.72;85.89
72118;BME280;59992;47.490;8.736;2022-12-07T04:31:40;96604.58;;;2.73;86.39
72118;BME280;59992;47.490;8.736;2022-12-07T04:34:30;96600.59;;;2.74;85.69
72118;BME280;59992;47.490;8.736;2022-12-07T04:37:21;96599.16;;;2.74;85.85
72118;BME280;59992;47.490;8.736;2022-12-07T04:40:12;96596.93;;;2.70;86.82
72118;BME280;59992;47.490;8.736;2022-12-07T04:43:03;96597.79;;;2.68;86.88
72118;BME280;59992;47.490;8.736;2022-12-07T04:45:53;96603.27;;;2.67;86.93
72118;BME280;59992;47.490;8.736;2022-12-07T04:48:43;96600.50;;;2.68;86.45
72118;BME280;59992;47.490;8.736;2022-12-07T04:51:34;96602.30;;;2.68;86.98
72118;BME280;59992;47.490;8.736;2022-12-07T04:54:24;96604.94;;;2.69;87.10
72118;BME280;59992;47.490;8.736;2022-12-07T04:57:24;96605.70;;;2.69;87.33
72118;BME280;59992;47.490;8.736;2022-12-07T05:00:14;96608.48;;;2.70;86.99
72118;BME280;59992;47.490;8.736;2022-12-07T05:03:04;96608.44;;;2.72;86.35
72118;BME280;59992;47.490;8.736;2022-12-07T05:05:55;96608.28;;;2.72;86.04
72118;BME280;59992;47.490;8.736;2022-12-07T05:08:45;96609.66;;;2.71;86.49
72118;BME280;59992;47.490;8.736;2022-12-07T05:11:36;96607.27;;;2.69;86.73
72118;BME280;59992;47.490;8.736;2022-12-07T05:14:29;96609.14;;;2.66;86.82
72118;BME280;59992;47.490;8.736;2022-12-07T05:17:19;96607.92;;;2.64;87.30
72118;BME280;59992;47.490;8.736;2022-12-07T05:20:10;96606.63;;;2.61;88.13
72118;BME280;59992;47.490;8.736;2022-12-07T05:23:01;96600.10;;;2.61;89.10
72118;BME280;59992;47.490;8.736;2022-12-07T05:25:51;96600.89;;;2.64;87.88
72118;BME280;59992;47.490;8.736;2022-12-07T05:28:41;96599.33;;;2.61;88.28
72118;BME280;59992;47.490;8.736;2022-12-07T05:31:32;96602.63;;;2.66;88.19
72118;BME280;59992;47.490;8.736;2022-12-07T05:34:23;96603.33;;;2.68;87.21
72118;BME280;59992;47.490;8.736;2022-12-07T05:37:13;96601.92;;;2.68;87.13
72118;BME280;59992;47.490;8.736;2022-12-07T05:40:05;96601.80;;;2.69;88.83
72118;BME280;59992;47.490;8.736;2022-12-07T05:42:55;96598.99;;;2.70;88.01
72118;BME280;59992;47.490;8.736;2022-12-07T05:45:45;96602.88;;;2.70;87.39
72118;BME280;59992;47.490;8.736;2022-12-07T05:48:35;96603.21;;;2.70;86.93
72118;BME280;59992;47.490;8.736;2022-12-07T05:51:26;96603.79;;;2.72;86.66
72118;BME280;59992;47.490;8.736;2022-12-07T05:54:17;96607.88;;;2.73;86.43
72118;BME280;59992;47.490;8.736;2022-12-07T05:57:07;96607.08;;;2.72;87.01
72118;BME280;59992;47.490;8.736;2022-12-07T05:59:58;96608.28;;;2.74;87.04
72118;BME280;59992;47.490;8.736;2022-12-07T06:02:48;96604.59;;;2.75;87.02
72118;BME280;59992;47.490;8.736;2022-12-07T06:05:38;96606.98;;;2.77;86.69
72118;BME280;59992;47.490;8.736;2022-12-07T06:08:29;96612.07;;;2.77;86.45
72118;BME280;59992;47.490;8.736;2022-12-07T06:11:19;96610.81;;;2.77;86.33
72118;BME280;59992;47.490;8.736;2022-12-07T06:14:27;96612.27;;;2.74;87.80
72118;BME280;59992;47.490;8.736;2022-12-07T06:17:17;96611.20;;;2.76;87.67
72118;BME280;59992;47.490;8.736;2022-12-07T06:20:08;96615.40;;;2.76;88.18
72118;BME280;59992;47.490;8.736;2022-12-07T06:22:59;96616.63;;;2.80;87.24
72118;BME280;59992;47.490;8.736;2022-12-07T06:25:49;96617.87;;;2.79;87.46
72118;BME280;59992;47.490;8.736;2022-12-07T06:28:39;96617.44;;;2.78;88.04
72118;BME280;59992;47.490;8.736;2022-12-07T06:31:29;96617.42;;;2.78;87.77
72118;BME280;59992;47.490;8.736;2022-12-07T06:34:21;96620.85;;;2.78;87.74
72118;BME280;59992;47.490;8.736;2022-12-07T06:37:12;96623.62;;;2.81;86.95
72118;BME280;59992;47.490;8.736;2022-12-07T06:40:03;96622.45;;;2.84;88.02
72118;BME280;59992;47.490;8.736;2022-12-07T06:42:54;96622.48;;;2.88;87.48
72118;BME280;59992;47.490;8.736;2022-12-07T06:45:44;96623.50;;;2.88;87.93
72118;BME280;59992;47.490;8.736;2022-12-07T06:48:35;96620.13;;;2.91;87.28
72118;BME280;59992;47.490;8.736;2022-12-07T06:51:25;96621.05;;;2.88;87.33
72118;BME280;59992;47.490;8.736;2022-12-07T06:54:16;96621.99;;;2.81;89.63
72118;BME280;59992;47.490;8.736;2022-12-07T06:57:06;96625.13;;;2.80;89.41
72118;BME280;59992;47.490;8.736;2022-12-07T06:59:56;96623.00;;;2.77;88.88
72118;BME280;59992;47.490;8.736;2022-12-07T07:02:47;96614.84;;;2.72;88.59
72118;BME280;59992;47.490;8.736;2022-12-07T07:05:37;96617.55;;;2.74;90.04
72118;BME280;59992;47.490;8.736;2022-12-07T07:08:27;96620.02;;;2.74;91.22
72118;BME280;59992;47.490;8.736;2022-12-07T07:11:17;96622.70;;;2.77;91.32
72118;BME280;59992;47.490;8.736;2022-12-07T07:14:08;96623.48;;;2.78;89.58
72118;BME280;59992;47.490;8.736;2022-12-07T07:16:59;96623.62;;;2.76;90.44
72118;BME280;59992;47.490;8.736;2022-12-07T07:19:49;96619.52;;;2.74;90.23
72118;BME280;59992;47.490;8.736;2022-12-07T07:22:40;96621.88;;;2.70;90.52
72118;BME280;59992;47.490;8.736;2022-12-07T07:25:30;96617.96;;;2.69;91.61
72118;BME280;59992;47.490;8.736;2022-12-07T07:28:20;96623.71;;;2.72;92.06
72118;BME280;59992;47.490;8.736;2022-12-07T07:31:11;96625.56;;;2.76;90.59
72118;BME280;59992;47.490;8.736;2022-12-07T07:34:01;96625.16;;;2.80;89.67
72118;BME280;59992;47.490;8.736;2022-12-07T07:36:51;96627.90;;;2.78;90.06
72118;BME280;59992;47.490;8.736;2022-12-07T07:39:41;96630.15;;;2.80;90.52
72118;BME280;59992;47.490;8.736;2022-12-07T07:42:32;96633.23;;;2.78;90.22
72118;BME280;59992;47.490;8.736;2022-12-07T07:45:23;96633.78;;;2.75;89.33
72118;BME280;59992;47.490;8.736;2022-12-07T07:48:14;96632.02;;;2.73;89.41
72118;BME280;59992;47.490;8.736;2022-12-07T07:51:08;96638.55;;;2.70;89.80
72118;BME280;59992;47.490;8.736;2022-12-07T07:53:58;96639.65;;;2.65;91.01
72118;BME280;59992;47.490;8.736;2022-12-07T07:56:48;96643.97;;;2.66;90.49
72118;BME280;59992;47.490;8.736;2022-12-07T07:59:38;96643.79;;;2.65;90.22
72118;BME280;59992;47.490;8.736;2022-12-07T08:02:29;96641.96;;;2.63;90.50
72118;BME280;59992;47.490;8.736;2022-12-07T08:05:20;96643.27;;;2.65;91.48
72118;BME280;59992;47.490;8.736;2022-12-07T08:08:10;96643.09;;;2.66;90.95
72118;BME280;59992;47.490;8.736;2022-12-07T08:11:00;96641.42;;;2.67;91.98
72118;BME280;59992;47.490;8.736;2022-12-07T08:13:50;96642.92;;;2.71;91.37
72118;BME280;59992;47.490;8.736;2022-12-07T08:16:40;96645.02;;;2.71;91.05
72118;BME280;59992;47.490;8.736;2022-12-07T08:19:31;96646.83;;;2.73;89.88
72118;BME280;59992;47.490;8.736;2022-12-07T08:22:22;96649.39;;;2.73;89.62
72118;BME280;59992;47.490;8.736;2022-12-07T08:25:12;96650.99;;;2.76;89.42
72118;BME280;59992;47.490;8.736;2022-12-07T08:28:03;96650.68;;;2.76;89.06
72118;BME280;59992;47.490;8.736;2022-12-07T08:30:59;96651.61;;;2.78;89.24
72118;BME280;59992;47.490;8.736;2022-12-07T08:33:50;96654.84;;;2.77;89.49
72118;BME280;59992;47.490;8.736;2022-12-07T08:36:40;96659.55;;;2.77;90.27
72118;BME280;59992;47.490;8.736;2022-12-07T08:39:30;96660.84;;;2.75;90.73
72118;BME280;59992;47.490;8.736;2022-12-07T08:42:21;96657.98;;;2.75;89.79
72118;BME280;59992;47.490;8.736;2022-12-07T08:45:17;96662.52;;;2.74;89.94
72118;BME280;59992;47.490;8.736;2022-12-07T08:48:11;96659.73;;;2.74;90.04
72118;BME280;59992;47.490;8.736;2022-12-07T08:51:04;96659.19;;;2.73;89.89
72118;BME280;59992;47.490;8.736;2022-12-07T08:53:55;96656.04;;;2.75;90.14
72118;BME280;59992;47.490;8.736;2022-12-07T08:56:47;96656.88;;;2.73;89.80
72118;BME280;59992;47.490;8.736;2022-12-07T08:59:38;96657.42;;;2.74;90.51
72118;BME280;59992;47.490;8.736;2022-12-07T09:02:28;96655.24;;;2.79;92.82
72118;BME280;59992;47.490;8.736;2022-12-07T09:05:20;96655.21;;;2.84;90.76
72118;BME280;59992;47.490;8.736;2022-12-07T09:08:10;96652.08;;;2.83;90.07
72118;BME280;59992;47.490;8.736;2022-12-07T09:11:01;96657.13;;;2.93;89.79
72118;BME280;59992;47.490;8.736;2022-12-07T09:13:51;96659.48;;;2.99;90.23
72118;BME280;59992;47.490;8.736;2022-12-07T09:16:42;96661.95;;;3.08;89.60
72118;BME280;59992;47.490;8.736;2022-12-07T09:19:32;96663.48;;;3.14;89.30
72118;BME280;59992;47.490;8.736;2022-12-07T09:22:22;96661.98;;;3.19;89.26
72118;BME280;59992;47.490;8.736;2022-12-07T09:25:13;96667.64;;;3.25;89.21
72118;BME280;59992;47.490;8.736;2022-12-07T09:28:03;96671.06;;;3.32;88.97
72118;BME280;59992;47.490;8.736;2022-12-07T09:30:54;96673.91;;;3.35;88.49
72118;BME280;59992;47.490;8.736;2022-12-07T09:33:44;96677.20;;;3.35;89.14
72118;BME280;59992;47.490;8.736;2022-12-07T09:36:35;96677.20;;;3.35;89.04
72118;BME280;59992;47.490;8.736;2022-12-07T09:39:25;96673.16;;;3.37;88.91
72118;BME280;59992;47.490;8.736;2022-12-07T09:42:27;96672.60;;;3.43;89.55
72118;BME280;59992;47.490;8.736;2022-12-07T09:45:22;96671.42;;;3.47;88.99
72118;BME280;59992;47.490;8.736;2022-12-07T09:48:19;96670.48;;;3.55;88.82
72118;BME280;59992;47.490;8.736;2022-12-07T09:51:16;96672.91;;;3.61;88.78
72118;BME280;59992;47.490;8.736;2022-12-07T09:54:08;96672.45;;;3.63;88.65
72118;BME280;59992;47.490;8.736;2022-12-07T09:57:01;96671.70;;;3.63;88.45
72118;BME280;59992;47.490;8.736;2022-12-07T09:59:52;96665.93;;;3.65;89.38
72118;BME280;59992;47.490;8.736;2022-12-07T10:02:43;96662.20;;;3.69;87.97
72118;BME280;59992;47.490;8.736;2022-12-07T10:05:38;96658.25;;;3.75;87.72
72118;BME280;59992;47.490;8.736;2022-12-07T10:08:30;96656.48;;;3.78;87.81
72118;BME280;59992;47.490;8.736;2022-12-07T10:11:20;96651.41;;;3.80;87.45
72118;BME280;59992;47.490;8.736;2022-12-07T10:14:14;96646.05;;;3.76;87.87
72118;BME280;59992;47.490;8.736;2022-12-07T10:17:32;96641.06;;;3.79;89.04
72118;BME280;59992;47.490;8.736;2022-12-07T10:20:26;96637.02;;;3.84;88.41
72118;BME280;59992;47.490;8.736;2022-12-07T10:23:17;96635.30;;;3.89;87.60
72118;BME280;59992;47.490;8.736;2022-12-07T10:26:29;96630.81;;;3.95;88.19
72118;BME280;59992;47.490;8.736;2022-12-07T10:29:22;96629.31;;;4.04;87.58
72118;BME280;59992;47.490;8.736;2022-12-07T10:32:29;96627.29;;;4.16;86.29
72118;BME280;59992;47.490;8.736;2022-12-07T10:35:24;96626.01;;;4.20;85.11
72118;BME280;59992;47.490;8.736;2022-12-07T10:38:18;96620.69;;;4.22;86.45
72118;BME280;59992;47.490;8.736;2022-12-07T10:41:08;96617.31;;;4.26;85.88
72118;BME280;59992;47.490;8.736;2022-12-07T10:43:59;96616.34;;;4.30;84.72
72118;BME280;59992;47.490;8.736;2022-12-07T10:47:01;96616.77;;;4.31;83.74
72118;BME280;59992;47.490;8.736;2022-12-07T10:50:17;96612.80;;;4.33;84.47
72118;BME280;59992;47.490;8.736;2022-12-07T10:56:38;96606.06;;;4.33;84.66
72118;BME280;59992;47.490;8.736;2022-12-07T10:59:48;96601.00;;;4.30;83.94
72118;BME280;59992;47.490;8.736;2022-12-07T11:03:00;96596.47;;;4.28;84.17
72118;BME280;59992;47.490;8.736;2022-12-07T11:05:58;96595.29;;;4.28;83.96
72118;BME280;59992;47.490;8.736;2022-12-07T11:09:03;96590.97;;;4.30;83.72
72118;BME280;59992;47.490;8.736;2022-12-07T11:12:04;96588.38;;;4.31;84.06
72118;BME280;59992;47.490;8.736;2022-12-07T11:15:02;96586.78;;;4.29;84.35
72118;BME280;59992;47.490;8.736;2022-12-07T11:17:58;96583.95;;;4.27;84.24
72118;BME280;59992;47.490;8.736;2022-12-07T11:20:55;96580.89;;;4.32;84.12
72118;BME280;59992;47.490;8.736;2022-12-07T11:23:51;96578.84;;;4.31;83.43
72118;BME280;59992;47.490;8.736;2022-12-07T11:26:55;96575.11;;;4.29;84.32
72118;BME280;59992;47.490;8.736;2022-12-07T11:30:13;96565.08;;;4.34;84.49
72118;BME280;59992;47.490;8.736;2022-12-07T11:33:16;96567.84;;;4.48;83.38
72118;BME280;59992;47.490;8.736;2022-12-07T11:36:21;96563.52;;;4.49;81.23
72118;BME280;59992;47.490;8.736;2022-12-07T11:39:21;96560.89;;;4.52;82.60
72118;BME280;59992;47.490;8.736;2022-12-07T11:42:19;96559.23;;;4.61;82.25
72118;BME280;59992;47.490;8.736;2022-12-07T11:45:17;96551.39;;;4.66;82.04
72118;BME280;59992;47.490;8.736;2022-12-07T11:48:14;96549.41;;;4.67;79.45
72118;BME280;59992;47.490;8.736;2022-12-07T11:51:09;96544.18;;;4.72;79.81
72118;BME280;59992;47.490;8.736;2022-12-07T11:54:05;96541.73;;;4.73;80.72
72118;BME280;59992;47.490;8.736;2022-12-07T11:57:10;96538.02;;;4.83;80.56
72118;BME280;59992;47.490;8.736;2022-12-07T12:00:11;96534.60;;;4.86;80.63
72118;BME280;59992;47.490;8.736;2022-12-07T12:03:09;96533.30;;;4.85;81.20
72118;BME280;59992;47.490;8.736;2022-12-07T12:06:01;96536.09;;;4.94;80.51
72118;BME280;59992;47.490;8.736;2022-12-07T12:08:55;96529.45;;;4.96;79.04
72118;BME280;59992;47.490;8.736;2022-12-07T12:12:00;96528.73;;;5.03;78.93
72118;BME280;59992;47.490;8.736;2022-12-07T12:15:06;96525.56;;;4.96;76.88
72118;BME280;59992;47.490;8.736;2022-12-07T12:18:12;96524.88;;;4.85;77.98
72118;BME280;59992;47.490;8.736;2022-12-07T12:21:12;96519.16;;;4.86;78.81
72118;BME280;59992;47.490;8.736;2022-12-07T12:24:09;96513.33;;;4.87;78.85
72118;BME280;59992;47.490;8.736;2022-12-07T12:27:04;96511.92;;;4.85;80.27
72118;BME280;59992;47.490;8.736;2022-12-07T12:29:57;96510.69;;;4.82;80.56
72118;BME280;59992;47.490;8.736;2022-12-07T12:32:49;96506.77;;;4.82;79.96
72118;BME280;59992;47.490;8.736;2022-12-07T12:35:39;96508.13;;;4.82;80.06
72118;BME280;59992;47.490;8.736;2022-12-07T12:38:32;96506.10;;;4.77;77.93
72118;BME280;59992;47.490;8.736;2022-12-07T12:41:57;96512.36;;;4.81;79.72
72118;BME280;59992;47.490;8.736;2022-12-07T12:45:21;96508.42;;;4.77;80.01
72118;BME280;59992;47.490;8.736;2022-12-07T12:48:29;96508.92;;;4.74;79.17
72118;BME280;59992;47.490;8.736;2022-12-07T12:51:43;96505.34;;;4.73;79.04
72118;BME280;59992;47.490;8.736;2022-12-07T12:54:37;96505.67;;;4.71;78.25
72118;BME280;59992;47.490;8.736;2022-12-07T12:57:29;96500.68;;;4.70;79.55
72118;BME280;59992;47.490;8.736;2022-12-07T13:00:23;96501.13;;;4.68;80.17
72118;BME280;59992;47.490;8.736;2022-12-07T13:03:29;96500.96;;;4.70;79.93
72118;BME280;59992;47.490;8.736;2022-12-07T13:06:31;96501.68;;;4.69;79.19
72118;BME280;59992;47.490;8.736;2022-12-07T13:09:26;96495.96;;;4.69;78.59
72118;BME280;59992;47.490;8.736;2022-12-07T13:12:17;96485.04;;;4.69;77.68
72118;BME280;59992;47.490;8.736;2022-12-07T13:15:33;96477.54;;;4.71;78.79
72118;BME280;59992;47.490;8.736;2022-12-07T13:18:36;96476.17;;;4.71;77.86
72118;BME280;59992;47.490;8.736;2022-12-07T13:21:45;96474.55;;;4.72;79.84
72118;BME280;59992;47.490;8.736;2022-12-07T13:24:36;96473.59;;;4.70;79.70
72118;BME280;59992;47.490;8.736;2022-12-07T13:27:28;96473.29;;;4.70;80.29
72118;BME280;59992;47.490;8.736;2022-12-07T13:30:20;96461.48;;;4.65;79.53
72118;BME280;59992;47.490;8.736;2022-12-07T13:33:11;96466.08;;;4.65;78.41
72118;BME280;59992;47.490;8.736;2022-12-07T13:36:02;96464.34;;;4.68;78.63
72118;BME280;59992;47.490;8.736;2022-12-07T13:38:56;96460.85;;;4.71;78.54
72118;BME280;59992;47.490;8.736;2022-12-07T13:41:51;96459.73;;;4.77;78.82
72118;BME280;59992;47.490;8.736;2022-12-07T13:44:42;96457.20;;;4.75;78.72
72118;BME280;59992;47.490;8.736;2022-12-07T13:47:43;96459.35;;;4.77;78.51
72118;BME280;59992;47.490;8.736;2022-12-07T13:50:34;96462.08;;;4.76;79.28
72118;BME280;59992;47.490;8.736;2022-12-07T13:53:25;96456.50;;;4.75;77.68
72118;BME280;59992;47.490;8.736;2022-12-07T13:56:20;96450.56;;;4.68;79.59
72118;BME280;59992;47.490;8.736;2022-12-07T13:59:16;96454.40;;;4.64;78.87
72118;BME280;59992;47.490;8.736;2022-12-07T14:02:19;96449.78;;;4.60;79.11
72118;BME280;59992;47.490;8.736;2022-12-07T14:05:13;96446.90;;;4.61;78.35
72118;BME280;59992;47.490;8.736;2022-12-07T14:08:05;96447.15;;;4.57;77.99
72118;BME280;59992;47.490;8.736;2022-12-07T14:11:14;96443.11;;;4.60;80.37
72118;BME280;59992;47.490;8.736;2022-12-07T14:14:10;96442.40;;;4.66;79.81
72118;BME280;59992;47.490;8.736;2022-12-07T14:17:16;96440.75;;;4.71;78.74
72118;BME280;59992;47.490;8.736;2022-12-07T14:20:31;96440.27;;;4.72;77.91
72118;BME280;59992;47.490;8.736;2022-12-07T14:23:25;96436.42;;;4.69;77.86
72118;BME280;59992;47.490;8.736;2022-12-07T14:26:18;96436.14;;;4.63;77.19
72118;BME280;59992;47.490;8.736;2022-12-07T14:29:31;96435.98;;;4.56;78.49
72118;BME280;59992;47.490;8.736;2022-12-07T14:32:26;96432.34;;;4.47;80.77
72118;BME280;59992;47.490;8.736;2022-12-07T14:35:18;96435.98;;;4.44;81.46
72118;BME280;59992;47.490;8.736;2022-12-07T14:38:10;96430.41;;;4.39;80.83
72118;BME280;59992;47.490;8.736;2022-12-07T14:41:14;96433.69;;;4.32;80.66
72118;BME280;59992;47.490;8.736;2022-12-07T14:44:23;96432.95;;;4.24;81.96
72118;BME280;59992;47.490;8.736;2022-12-07T14:47:15;96431.59;;;4.22;82.92
72118;BME280;59992;47.490;8.736;2022-12-07T14:50:07;96430.75;;;4.21;83.43
72118;BME280;59992;47.490;8.736;2022-12-07T14:53:01;96433.99;;;4.15;83.39
72118;BME280;59992;47.490;8.736;2022-12-07T14:55:53;96433.06;;;4.11;83.30
72118;BME280;59992;47.490;8.736;2022-12-07T14:58:43;96433.71;;;4.06;84.35
72118;BME280;59992;47.490;8.736;2022-12-07T15:01:36;96434.08;;;4.03;84.87
72118;BME280;59992;47.490;8.736;2022-12-07T15:04:27;96427.71;;;3.97;84.75
72118;BME280;59992;47.490;8.736;2022-12-07T15:07:20;96432.10;;;3.92;84.91
72118;BME280;59992;47.490;8.736;2022-12-07T15:10:17;96431.79;;;3.90;84.81
72118;BME280;59992;47.490;8.736;2022-12-07T15:13:08;96436.09;;;3.84;84.58
72118;BME280;59992;47.490;8.736;2022-12-07T15:16:19;96432.66;;;3.81;85.78
72118;BME280;59992;47.490;8.736;2022-12-07T15:19:14;96436.00;;;3.78;85.69
72118;BME280;59992;47.490;8.736;2022-12-07T15:22:04;96437.17;;;3.78;86.04
72118;BME280;59992;47.490;8.736;2022-12-07T15:24:55;96438.45;;;3.76;86.13
72118;BME280;59992;47.490;8.736;2022-12-07T15:27:46;96438.44;;;3.73;87.23
72118;BME280;59992;47.490;8.736;2022-12-07T15:30:37;96438.72;;;3.73;86.90
72118;BME280;59992;47.490;8.736;2022-12-07T15:33:28;96436.30;;;3.70;87.55
72118;BME280;59992;47.490;8.736;2022-12-07T15:36:20;96438.02;;;3.67;86.45
72118;BME280;59992;47.490;8.736;2022-12-07T15:39:11;96440.64;;;3.66;87.65